sensor_id;sensor_type;location;lat;lon;timestamp;pressure;altitude;pressure_sealevel;temperature;humidity
26859;BME280;14429;48.346;16.338;2022-09-16T00:00:31;99022.44;;;23.54;58.85
26859;BME280;14429;48.346;16.338;2022-09-16T00:02:57;99016.63;;;23.37;58.52
26859;BME280;14429;48.346;16.338;2022-09-16T00:05:23;99026.81;;;23.55;59.02
26859;BME280;14429;48.346;16.338;2022-09-16T00:07:48;99030.81;;;23.59;58.62
26859;BME280;14429;48.346;16.338;2022-09-16T00:10:14;99030.56;;;23.48;59.13
26859;BME280;14429;48.346;16.338;2022-09-16T00:12:41;99031.25;;;22.96;56.44
26859;BME280;14429;48.346;16.338;2022-09-16T00:15:08;99031.16;;;23.10;59.35
26859;BME280;14429;48.346;16.338;2022-09-16T00:17:33;99039.16;;;23.18;59.46
26859;BME280;14429;48.346;16.338;2022-09-16T00:19:59;99037.94;;;23.27;59.34
26859;BME280;14429;48.346;16.338;2022-09-16T00:22:26;99027.25;;;22.92;59.61
26859;BME280;14429;48.346;16.338;2022-09-16T00:24:52;99033.31;;;23.21;59.84
26859;BME280;14429;48.346;16.338;2022-09-16T00:27:18;99036.25;;;23.26;58.94
26859;BME280;14429;48.346;16.338;2022-09-16T00:29:44;99032.91;;;23.24;59.36
26859;BME280;14429;48.346;16.338;2022-09-16T00:32:10;99029.69;;;23.14;58.97
26859;BME280;14429;48.346;16.338;2022-09-16T00:34:35;99039.94;;;23.12;59.46
26859;BME280;14429;48.346;16.338;2022-09-16T00:37:01;99039.06;;;23.05;59.46
26859;BME280;14429;48.346;16.338;2022-09-16T00:39:26;99033.28;;;22.88;56.08
26859;BME280;14429;48.346;16.338;2022-09-16T00:41:52;99035.31;;;23.06;59.90
26859;BME280;14429;48.346;16.338;2022-09-16T00:44:53;99022.47;;;22.73;56.77
26859;BME280;14429;48.346;16.338;2022-09-16T00:47:20;99033.66;;;23.12;59.40
26859;BME280;14429;48.346;16.338;2022-09-16T00:49:48;99029.09;;;23.19;59.17
26859;BME280;14429;48.346;16.338;2022-09-16T00:52:15;99031.88;;;23.25;59.15
26859;BME280;14429;48.346;16.338;2022-09-16T00:54:41;99040.59;;;22.87;57.59
26859;BME280;14429;48.346;16.338;2022-09-16T00:57:09;99030.97;;;22.85;58.29
26859;BME280;14429;48.346;16.338;2022-09-16T00:59:39;99026.03;;;22.95;59.58
26859;BME280;14429;48.346;16.338;2022-09-16T01:02:10;99032.53;;;22.52;57.63
26859;BME280;14429;48.346;16.338;2022-09-16T01:04:42;99026.00;;;22.26;57.81
26859;BME280;14429;48.346;16.338;2022-09-16T01:07:08;99031.59;;;22.66;60.66
26859;BME280;14429;48.346;16.338;2022-09-16T01:09:34;99025.13;;;22.67;60.33
26859;BME280;14429;48.346;16.338;2022-09-16T01:12:00;99032.16;;;22.76;58.64
26859;BME280;14429;48.346;16.338;2022-09-16T01:14:27;99029.94;;;22.65;60.04
26859;BME280;14429;48.346;16.338;2022-09-16T01:16:55;99028.03;;;22.39;60.67
26859;BME280;14429;48.346;16.338;2022-09-16T01:19:36;99028.88;;;22.39;57.73
26859;BME280;14429;48.346;16.338;2022-09-16T01:22:17;99032.69;;;22.92;59.92
26859;BME280;14429;48.346;16.338;2022-09-16T01:24:51;99020.59;;;22.74;60.13
26859;BME280;14429;48.346;16.338;2022-09-16T01:27:44;99027.69;;;22.75;60.05
26859;BME280;14429;48.346;16.338;2022-09-16T01:30:43;99024.69;;;22.84;58.13
26859;BME280;14429;48.346;16.338;2022-09-16T01:33:19;99026.69;;;22.55;59.88
26859;BME280;14429;48.346;16.338;2022-09-16T01:35:57;99020.84;;;22.79;59.62
26859;BME280;14429;48.346;16.338;2022-09-16T01:38:35;99015.16;;;22.74;59.54
26859;BME280;14429;48.346;16.338;2022-09-16T01:41:08;99027.19;;;22.86;59.70
26859;BME280;14429;48.346;16.338;2022-09-16T01:43:41;99029.41;;;22.55;59.85
26859;BME280;14429;48.346;16.338;2022-09-16T01:46:17;99021.34;;;22.89;59.37
26859;BME280;14429;48.346;16.338;2022-09-16T01:48:52;99012.81;;;22.71;58.77
26859;BME280;14429;48.346;16.338;2022-09-16T01:51:23;99014.19;;;22.81;56.54
26859;BME280;14429;48.346;16.338;2022-09-16T01:53:54;99011.03;;;22.78;59.34
26859;BME280;14429;48.346;16.338;2022-09-16T01:56:25;99025.66;;;22.77;59.57
26859;BME280;14429;48.346;16.338;2022-09-16T01:58:57;99014.50;;;22.72;59.65
26859;BME280;14429;48.346;16.338;2022-09-16T02:01:29;99023.69;;;22.92;59.03
26859;BME280;14429;48.346;16.338;2022-09-16T02:03:59;99021.59;;;22.94;58.94
26859;BME280;14429;48.346;16.338;2022-09-16T02:06:26;99022.63;;;22.93;59.03
26859;BME280;14429;48.346;16.338;2022-09-16T02:08:54;99018.63;;;22.89;58.78
26859;BME280;14429;48.346;16.338;2022-09-16T02:11:22;99010.69;;;22.67;58.72
26859;BME280;14429;48.346;16.338;2022-09-16T02:13:50;99009.34;;;22.56;57.62
26859;BME280;14429;48.346;16.338;2022-09-16T02:16:22;99006.31;;;22.93;58.73
26859;BME280;14429;48.346;16.338;2022-09-16T02:18:53;99010.97;;;22.98;58.69
26859;BME280;14429;48.346;16.338;2022-09-16T02:21:21;99011.53;;;22.88;58.76
26859;BME280;14429;48.346;16.338;2022-09-16T02:23:50;99002.38;;;22.95;58.47
26859;BME280;14429;48.346;16.338;2022-09-16T02:26:20;98998.97;;;22.66;57.61
26859;BME280;14429;48.346;16.338;2022-09-16T02:28:47;98991.88;;;22.65;58.53
26859;BME280;14429;48.346;16.338;2022-09-16T02:31:15;98990.63;;;22.20;56.51
26859;BME280;14429;48.346;16.338;2022-09-16T02:33:46;98991.94;;;22.71;59.51
26859;BME280;14429;48.346;16.338;2022-09-16T02:36:19;98997.75;;;22.69;59.34
26859;BME280;14429;48.346;16.338;2022-09-16T02:38:46;98993.44;;;22.53;56.74
26859;BME280;14429;48.346;16.338;2022-09-16T02:41:13;98996.81;;;22.82;59.11
26859;BME280;14429;48.346;16.338;2022-09-16T02:43:39;98992.47;;;22.88;58.21
26859;BME280;14429;48.346;16.338;2022-09-16T02:46:08;98991.44;;;22.89;58.56
26859;BME280;14429;48.346;16.338;2022-09-16T02:48:43;98993.59;;;22.99;58.20
26859;BME280;14429;48.346;16.338;2022-09-16T02:51:21;98990.66;;;23.01;58.40
26859;BME280;14429;48.346;16.338;2022-09-16T02:53:51;98990.06;;;22.99;58.29
26859;BME280;14429;48.346;16.338;2022-09-16T02:56:23;98996.31;;;22.99;58.01
26859;BME280;14429;48.346;16.338;2022-09-16T02:58:50;98998.53;;;22.90;58.37
26859;BME280;14429;48.346;16.338;2022-09-16T03:01:16;98995.59;;;22.85;58.48
26859;BME280;14429;48.346;16.338;2022-09-16T03:03:44;98988.03;;;22.80;58.37
26859;BME280;14429;48.346;16.338;2022-09-16T03:06:13;98986.66;;;22.70;58.87
26859;BME280;14429;48.346;16.338;2022-09-16T03:08:41;98990.81;;;22.87;58.57
26859;BME280;14429;48.346;16.338;2022-09-16T03:11:14;98988.31;;;22.92;58.38
26859;BME280;14429;48.346;16.338;2022-09-16T03:13:46;98988.47;;;22.84;58.24
26859;BME280;14429;48.346;16.338;2022-09-16T03:16:22;98990.88;;;22.25;58.66
26859;BME280;14429;48.346;16.338;2022-09-16T03:19:06;98990.88;;;22.45;58.64
26859;BME280;14429;48.346;16.338;2022-09-16T03:21:41;98985.91;;;22.55;57.64
26859;BME280;14429;48.346;16.338;2022-09-16T03:24:18;98979.44;;;22.56;56.02
26859;BME280;14429;48.346;16.338;2022-09-16T03:26:49;98988.56;;;22.49;57.73
26859;BME280;14429;48.346;16.338;2022-09-16T03:29:23;98990.47;;;22.48;59.07
26859;BME280;14429;48.346;16.338;2022-09-16T03:31:55;98990.88;;;22.45;59.29
26859;BME280;14429;48.346;16.338;2022-09-16T03:34:25;98994.91;;;22.76;58.31
26859;BME280;14429;48.346;16.338;2022-09-16T03:36:55;98993.25;;;22.82;57.93
26859;BME280;14429;48.346;16.338;2022-09-16T03:39:24;98992.66;;;22.59;58.36
26859;BME280;14429;48.346;16.338;2022-09-16T03:41:50;98990.19;;;22.64;58.47
26859;BME280;14429;48.346;16.338;2022-09-16T03:44:15;98991.25;;;22.43;56.01
26859;BME280;14429;48.346;16.338;2022-09-16T03:46:41;98985.16;;;22.61;58.23
26859;BME280;14429;48.346;16.338;2022-09-16T03:49:06;98980.19;;;22.71;58.43
26859;BME280;14429;48.346;16.338;2022-09-16T03:51:32;98983.88;;;22.64;58.52
26859;BME280;14429;48.346;16.338;2022-09-16T03:53:57;98996.59;;;22.77;57.95
26859;BME280;14429;48.346;16.338;2022-09-16T03:56:24;98990.16;;;22.85;57.56
26859;BME280;14429;48.346;16.338;2022-09-16T03:58:49;99001.69;;;22.87;57.48
26859;BME280;14429;48.346;16.338;2022-09-16T04:01:15;99002.97;;;22.91;57.71
26859;BME280;14429;48.346;16.338;2022-09-16T04:03:40;99007.59;;;22.97;57.21
26859;BME280;14429;48.346;16.338;2022-09-16T04:06:06;99018.88;;;22.94;57.32
26859;BME280;14429;48.346;16.338;2022-09-16T04:08:32;99010.31;;;22.90;57.29
26859;BME280;14429;48.346;16.338;2022-09-16T04:10:59;99016.38;;;22.92;57.53
26859;BME280;14429;48.346;16.338;2022-09-16T04:13:28;99009.66;;;22.88;57.29
26859;BME280;14429;48.346;16.338;2022-09-16T04:15:53;99018.25;;;22.92;57.23
26859;BME280;14429;48.346;16.338;2022-09-16T04:18:19;99023.47;;;22.93;57.32
26859;BME280;14429;48.346;16.338;2022-09-16T04:20:44;99025.59;;;22.98;57.20
26859;BME280;14429;48.346;16.338;2022-09-16T04:23:10;99025.91;;;22.82;57.05
26859;BME280;14429;48.346;16.338;2022-09-16T04:25:35;99026.41;;;22.92;57.05
26859;BME280;14429;48.346;16.338;2022-09-16T04:28:01;99026.78;;;22.89;57.06
26859;BME280;14429;48.346;16.338;2022-09-16T04:30:28;99014.91;;;22.69;53.47
26859;BME280;14429;48.346;16.338;2022-09-16T04:32:53;99034.03;;;22.55;57.40
26859;BME280;14429;48.346;16.338;2022-09-16T04:35:19;99032.66;;;22.65;55.25
26859;BME280;14429;48.346;16.338;2022-09-16T04:37:45;99023.63;;;22.85;57.40
26859;BME280;14429;48.346;16.338;2022-09-16T04:40:10;99019.38;;;22.76;57.37
26859;BME280;14429;48.346;16.338;2022-09-16T04:42:36;99018.06;;;22.72;57.61
26859;BME280;14429;48.346;16.338;2022-09-16T04:45:01;99011.69;;;22.80;56.94
26859;BME280;14429;48.346;16.338;2022-09-16T04:47:28;99013.13;;;22.76;57.23
26859;BME280;14429;48.346;16.338;2022-09-16T04:49:54;99023.31;;;22.74;57.59
26859;BME280;14429;48.346;16.338;2022-09-16T04:52:19;99014.41;;;22.59;56.35
26859;BME280;14429;48.346;16.338;2022-09-16T04:54:45;99010.25;;;22.63;57.79
26859;BME280;14429;48.346;16.338;2022-09-16T04:57:10;99012.19;;;22.69;57.63
26859;BME280;14429;48.346;16.338;2022-09-16T04:59:35;99009.97;;;22.79;57.07
26859;BME280;14429;48.346;16.338;2022-09-16T05:02:01;99004.16;;;22.82;56.93
26859;BME280;14429;48.346;16.338;2022-09-16T05:04:27;98998.25;;;22.78;56.88
26859;BME280;14429;48.346;16.338;2022-09-16T05:06:53;98999.53;;;22.76;56.97
26859;BME280;14429;48.346;16.338;2022-09-16T05:09:18;99007.13;;;22.39;57.57
26859;BME280;14429;48.346;16.338;2022-09-16T05:11:44;99006.00;;;22.54;57.65
26859;BME280;14429;48.346;16.338;2022-09-16T05:14:12;99008.06;;;21.90;54.32
26859;BME280;14429;48.346;16.338;2022-09-16T05:16:38;99004.44;;;21.35;59.73
26859;BME280;14429;48.346;16.338;2022-09-16T05:19:04;98999.00;;;21.06;55.93
26859;BME280;14429;48.346;16.338;2022-09-16T05:21:32;98994.09;;;21.93;59.89
26859;BME280;14429;48.346;16.338;2022-09-16T05:23:59;98995.94;;;22.28;58.62
26859;BME280;14429;48.346;16.338;2022-09-16T05:26:27;98991.19;;;22.36;58.44
26859;BME280;14429;48.346;16.338;2022-09-16T05:28:53;98985.03;;;22.48;58.03
26859;BME280;14429;48.346;16.338;2022-09-16T05:31:21;98988.00;;;22.53;57.67
26859;BME280;14429;48.346;16.338;2022-09-16T05:33:52;98986.16;;;22.33;57.85
26859;BME280;14429;48.346;16.338;2022-09-16T05:36:18;98989.44;;;21.88;58.92
26859;BME280;14429;48.346;16.338;2022-09-16T05:38:45;98995.22;;;21.64;58.88
26859;BME280;14429;48.346;16.338;2022-09-16T05:41:11;98988.78;;;20.65;59.71
26859;BME280;14429;48.346;16.338;2022-09-16T05:43:37;99003.00;;;19.57;61.22
26859;BME280;14429;48.346;16.338;2022-09-16T05:46:03;98987.78;;;20.08;60.83
26859;BME280;14429;48.346;16.338;2022-09-16T05:48:29;98977.03;;;20.73;63.63
26859;BME280;14429;48.346;16.338;2022-09-16T05:50:57;98986.00;;;21.02;58.57
26859;BME280;14429;48.346;16.338;2022-09-16T05:53:23;98984.16;;;21.31;61.25
26859;BME280;14429;48.346;16.338;2022-09-16T05:55:58;98983.78;;;21.05;60.75
26859;BME280;14429;48.346;16.338;2022-09-16T05:58:24;98990.78;;;20.71;60.17
26859;BME280;14429;48.346;16.338;2022-09-16T06:00:50;98987.69;;;21.17;58.33
26859;BME280;14429;48.346;16.338;2022-09-16T06:03:15;98996.69;;;21.32;61.32
26859;BME280;14429;48.346;16.338;2022-09-16T06:05:41;98993.38;;;21.50;60.55
26859;BME280;14429;48.346;16.338;2022-09-16T06:08:06;98994.63;;;20.91;59.15
26859;BME280;14429;48.346;16.338;2022-09-16T06:10:36;98983.78;;;21.68;60.72
26859;BME280;14429;48.346;16.338;2022-09-16T06:13:03;98980.38;;;21.46;59.47
26859;BME280;14429;48.346;16.338;2022-09-16T06:15:28;98990.97;;;21.96;59.74
26859;BME280;14429;48.346;16.338;2022-09-16T06:17:53;99000.22;;;22.16;59.04
26859;BME280;14429;48.346;16.338;2022-09-16T06:20:19;98994.38;;;22.40;57.89
26859;BME280;14429;48.346;16.338;2022-09-16T06:22:44;98987.34;;;22.51;57.70
26859;BME280;14429;48.346;16.338;2022-09-16T06:25:10;98985.53;;;22.58;57.44
26859;BME280;14429;48.346;16.338;2022-09-16T06:27:35;98987.88;;;22.61;57.13
26859;BME280;14429;48.346;16.338;2022-09-16T06:30:03;99000.19;;;22.64;57.00
26859;BME280;14429;48.346;16.338;2022-09-16T06:32:29;99008.22;;;22.24;56.82
26859;BME280;14429;48.346;16.338;2022-09-16T06:34:55;98999.88;;;22.25;58.01
26859;BME280;14429;48.346;16.338;2022-09-16T06:37:20;98998.94;;;22.12;55.22
26859;BME280;14429;48.346;16.338;2022-09-16T06:39:46;99002.41;;;22.27;58.24
26859;BME280;14429;48.346;16.338;2022-09-16T06:42:11;99002.66;;;22.11;57.15
26859;BME280;14429;48.346;16.338;2022-09-16T06:44:36;99011.84;;;22.10;58.72
26859;BME280;14429;48.346;16.338;2022-09-16T06:47:03;99005.50;;;22.03;57.56
26859;BME280;14429;48.346;16.338;2022-09-16T06:49:29;98998.59;;;22.21;58.14
26859;BME280;14429;48.346;16.338;2022-09-16T06:51:54;98996.69;;;22.43;57.41
26859;BME280;14429;48.346;16.338;2022-09-16T06:54:19;99005.38;;;22.32;57.54
26859;BME280;14429;48.346;16.338;2022-09-16T06:56:45;98997.59;;;22.49;56.99
26859;BME280;14429;48.346;16.338;2022-09-16T06:59:10;99005.88;;;22.42;55.25
26859;BME280;14429;48.346;16.338;2022-09-16T07:01:36;99006.06;;;22.40;56.65
26859;BME280;14429;48.346;16.338;2022-09-16T07:04:05;99002.22;;;22.55;56.78
26859;BME280;14429;48.346;16.338;2022-09-16T07:06:31;99000.63;;;22.61;57.00
26859;BME280;14429;48.346;16.338;2022-09-16T07:08:57;98993.94;;;22.63;56.83
26859;BME280;14429;48.346;16.338;2022-09-16T07:11:23;98997.31;;;22.65;56.55
26859;BME280;14429;48.346;16.338;2022-09-16T07:13:49;99009.69;;;22.47;57.42
26859;BME280;14429;48.346;16.338;2022-09-16T07:16:17;99015.06;;;22.41;56.96
26859;BME280;14429;48.346;16.338;2022-09-16T07:18:43;99015.91;;;22.41;57.11
26859;BME280;14429;48.346;16.338;2022-09-16T07:21:11;99017.78;;;22.61;56.56
26859;BME280;14429;48.346;16.338;2022-09-16T07:23:38;99009.47;;;22.69;56.36
26859;BME280;14429;48.346;16.338;2022-09-16T07:26:05;99013.00;;;22.43;56.07
26859;BME280;14429;48.346;16.338;2022-09-16T07:28:31;99007.28;;;22.58;56.80
26859;BME280;14429;48.346;16.338;2022-09-16T07:30:59;99008.84;;;22.46;56.89
26859;BME280;14429;48.346;16.338;2022-09-16T07:33:25;99010.09;;;22.44;56.85
26859;BME280;14429;48.346;16.338;2022-09-16T07:35:50;99006.63;;;22.56;56.70
26859;BME280;14429;48.346;16.338;2022-09-16T07:38:17;99001.63;;;22.33;56.65
26859;BME280;14429;48.346;16.338;2022-09-16T07:40:42;99006.53;;;22.43;56.97
26859;BME280;14429;48.346;16.338;2022-09-16T07:43:08;99007.44;;;22.50;56.89
26859;BME280;14429;48.346;16.338;2022-09-16T07:45:33;99006.78;;;22.48;55.59
26859;BME280;14429;48.346;16.338;2022-09-16T07:47:58;98998.38;;;22.23;53.77
26859;BME280;14429;48.346;16.338;2022-09-16T07:50:24;98992.16;;;22.49;56.69
26859;BME280;14429;48.346;16.338;2022-09-16T07:52:52;99001.22;;;22.36;57.15
26859;BME280;14429;48.346;16.338;2022-09-16T07:55:19;99002.13;;;22.43;56.88
26859;BME280;14429;48.346;16.338;2022-09-16T07:57:45;98998.00;;;22.46;56.63
26859;BME280;14429;48.346;16.338;2022-09-16T08:00:11;99006.00;;;22.54;56.24
26859;BME280;14429;48.346;16.338;2022-09-16T08:02:37;99009.34;;;22.56;56.72
26859;BME280;14429;48.346;16.338;2022-09-16T08:05:03;99017.66;;;22.48;56.38
26859;BME280;14429;48.346;16.338;2022-09-16T08:07:28;99015.06;;;22.41;53.19
26859;BME280;14429;48.346;16.338;2022-09-16T08:09:54;99019.66;;;22.40;56.57
26859;BME280;14429;48.346;16.338;2022-09-16T08:12:20;99020.50;;;22.41;56.39
26859;BME280;14429;48.346;16.338;2022-09-16T08:14:46;99030.66;;;22.53;56.67
26859;BME280;14429;48.346;16.338;2022-09-16T08:17:11;99026.06;;;22.53;56.20
26859;BME280;14429;48.346;16.338;2022-09-16T08:19:36;99041.97;;;22.56;56.13
26859;BME280;14429;48.346;16.338;2022-09-16T08:22:02;99035.59;;;22.43;54.98
26859;BME280;14429;48.346;16.338;2022-09-16T08:24:27;99041.59;;;22.59;55.69
26859;BME280;14429;48.346;16.338;2022-09-16T08:26:53;99035.91;;;22.54;56.29
26859;BME280;14429;48.346;16.338;2022-09-16T08:29:19;99040.69;;;22.52;55.24
26859;BME280;14429;48.346;16.338;2022-09-16T08:31:45;99025.94;;;22.41;53.13
26859;BME280;14429;48.346;16.338;2022-09-16T08:34:10;99030.47;;;22.54;55.68
26859;BME280;14429;48.346;16.338;2022-09-16T08:36:36;99018.66;;;22.20;50.94
26859;BME280;14429;48.346;16.338;2022-09-16T08:39:01;99027.75;;;22.54;55.70
26859;BME280;14429;48.346;16.338;2022-09-16T08:41:48;99016.72;;;22.62;55.48
26859;BME280;14429;48.346;16.338;2022-09-16T08:44:22;99014.91;;;22.69;55.52
26859;BME280;14429;48.346;16.338;2022-09-16T08:46:52;99010.75;;;22.73;55.28
26859;BME280;14429;48.346;16.338;2022-09-16T08:49:26;99009.06;;;22.72;55.13
26859;BME280;14429;48.346;16.338;2022-09-16T08:51:54;99012.97;;;22.63;54.87
26859;BME280;14429;48.346;16.338;2022-09-16T08:54:26;99021.91;;;22.57;52.11
26859;BME280;14429;48.346;16.338;2022-09-16T08:56:53;99025.03;;;22.54;54.21
26859;BME280;14429;48.346;16.338;2022-09-16T08:59:23;99023.75;;;22.50;54.24
26859;BME280;14429;48.346;16.338;2022-09-16T09:01:55;99029.47;;;22.62;55.15
26859;BME280;14429;48.346;16.338;2022-09-16T09:04:22;99028.66;;;22.61;54.86
26859;BME280;14429;48.346;16.338;2022-09-16T09:06:56;99026.47;;;22.50;54.59
26859;BME280;14429;48.346;16.338;2022-09-16T09:09:41;99029.88;;;22.59;54.55
26859;BME280;14429;48.346;16.338;2022-09-16T09:12:14;99035.09;;;22.60;54.53
26859;BME280;14429;48.346;16.338;2022-09-16T09:14:59;99029.94;;;22.65;54.08
26859;BME280;14429;48.346;16.338;2022-09-16T09:17:34;99032.38;;;22.60;54.39
26859;BME280;14429;48.346;16.338;2022-09-16T09:20:11;99034.38;;;22.45;54.57
26859;BME280;14429;48.346;16.338;2022-09-16T09:22:53;99020.41;;;22.28;53.49
26859;BME280;14429;48.346;16.338;2022-09-16T09:25:30;99029.50;;;22.41;52.19
26859;BME280;14429;48.346;16.338;2022-09-16T09:28:04;99020.81;;;22.52;54.20
26859;BME280;14429;48.346;16.338;2022-09-16T09:30:39;99021.47;;;22.54;54.91
26859;BME280;14429;48.346;16.338;2022-09-16T09:33:19;99021.91;;;22.57;53.00
26859;BME280;14429;48.346;16.338;2022-09-16T09:36:01;99019.22;;;22.57;54.40
26859;BME280;14429;48.346;16.338;2022-09-16T09:38:56;99009.41;;;22.63;54.29
26859;BME280;14429;48.346;16.338;2022-09-16T09:41:29;99018.53;;;22.55;54.27
26859;BME280;14429;48.346;16.338;2022-09-16T09:44:03;99021.09;;;22.57;54.53
26859;BME280;14429;48.346;16.338;2022-09-16T09:46:36;99016.50;;;22.64;54.61
26859;BME280;14429;48.346;16.338;2022-09-16T09:49:09;99013.25;;;22.47;54.47
26859;BME280;14429;48.346;16.338;2022-09-16T09:51:38;99006.63;;;22.56;54.74
26859;BME280;14429;48.346;16.338;2022-09-16T09:54:25;99010.63;;;22.60;54.41
26859;BME280;14429;48.346;16.338;2022-09-16T09:56:53;99018.16;;;22.58;54.28
26859;BME280;14429;48.346;16.338;2022-09-16T09:59:26;99012.50;;;22.60;54.54
26859;BME280;14429;48.346;16.338;2022-09-16T10:01:55;99015.19;;;22.53;54.35
26859;BME280;14429;48.346;16.338;2022-09-16T10:04:21;99023.97;;;22.55;54.64
26859;BME280;14429;48.346;16.338;2022-09-16T10:06:48;99016.25;;;22.32;52.70
26859;BME280;14429;48.346;16.338;2022-09-16T10:09:15;99014.34;;;22.53;54.34
26859;BME280;14429;48.346;16.338;2022-09-16T10:11:47;99007.56;;;22.22;53.42
26859;BME280;14429;48.346;16.338;2022-09-16T10:14:22;99000.56;;;22.54;54.40
26859;BME280;14429;48.346;16.338;2022-09-16T10:16:49;98997.09;;;22.40;54.63
26859;BME280;14429;48.346;16.338;2022-09-16T10:19:20;99004.72;;;22.30;53.70
26859;BME280;14429;48.346;16.338;2022-09-16T10:21:49;99007.56;;;22.43;53.23
26859;BME280;14429;48.346;16.338;2022-09-16T10:24:31;98994.53;;;22.59;53.00
26859;BME280;14429;48.346;16.338;2022-09-16T10:26:58;98986.44;;;22.65;52.88
26859;BME280;14429;48.346;16.338;2022-09-16T10:29:24;98990.38;;;22.90;52.36
26859;BME280;14429;48.346;16.338;2022-09-16T10:31:49;98983.94;;;22.70;52.99
26859;BME280;14429;48.346;16.338;2022-09-16T10:34:20;98995.94;;;23.02;52.02
26859;BME280;14429;48.346;16.338;2022-09-16T10:36:57;98998.72;;;23.15;51.67
26859;BME280;14429;48.346;16.338;2022-09-16T10:39:24;98991.84;;;23.19;51.83
26859;BME280;14429;48.346;16.338;2022-09-16T10:41:51;98987.19;;;22.80;50.36
26859;BME280;14429;48.346;16.338;2022-09-16T10:44:21;98988.66;;;23.09;52.09
26859;BME280;14429;48.346;16.338;2022-09-16T10:46:52;98997.75;;;23.29;51.68
26859;BME280;14429;48.346;16.338;2022-09-16T10:49:24;98990.16;;;23.18;51.93
26859;BME280;14429;48.346;16.338;2022-09-16T10:51:50;98986.06;;;23.35;51.79
26859;BME280;14429;48.346;16.338;2022-09-16T10:54:24;98985.06;;;23.02;52.29
26859;BME280;14429;48.346;16.338;2022-09-16T10:56:50;98992.72;;;23.26;51.66
26859;BME280;14429;48.346;16.338;2022-09-16T10:59:16;98988.41;;;23.04;51.64
26859;BME280;14429;48.346;16.338;2022-09-16T11:01:44;98972.78;;;23.13;51.96
26859;BME280;14429;48.346;16.338;2022-09-16T11:04:26;98973.03;;;23.24;52.47
26859;BME280;14429;48.346;16.338;2022-09-16T11:07:03;98979.75;;;23.28;52.41
26859;BME280;14429;48.346;16.338;2022-09-16T11:09:36;98976.47;;;23.39;52.04
26859;BME280;14429;48.346;16.338;2022-09-16T11:12:22;98971.06;;;23.45;51.80
26859;BME280;14429;48.346;16.338;2022-09-16T11:14:57;98960.53;;;23.36;51.70
26859;BME280;14429;48.346;16.338;2022-09-16T11:17:37;98963.81;;;23.25;51.18
26859;BME280;14429;48.346;16.338;2022-09-16T11:23:07;98949.41;;;23.37;51.92
26859;BME280;14429;48.346;16.338;2022-09-16T11:25:48;98935.19;;;23.42;51.90
26859;BME280;14429;48.346;16.338;2022-09-16T11:31:30;98924.31;;;23.42;52.38
26859;BME280;14429;48.346;16.338;2022-09-16T11:34:04;98927.94;;;23.49;52.07
26859;BME280;14429;48.346;16.338;2022-09-16T11:36:39;98937.63;;;23.57;52.00
26859;BME280;14429;48.346;16.338;2022-09-16T11:39:19;98942.19;;;23.51;51.75
26859;BME280;14429;48.346;16.338;2022-09-16T11:41:54;98936.44;;;23.33;52.30
26859;BME280;14429;48.346;16.338;2022-09-16T11:47:33;98937.47;;;23.32;52.73
26859;BME280;14429;48.346;16.338;2022-09-16T11:50:11;98938.75;;;23.42;52.07
26859;BME280;14429;48.346;16.338;2022-09-16T11:52:52;98932.03;;;23.32;51.89
26859;BME280;14429;48.346;16.338;2022-09-16T11:55:29;98935.38;;;23.27;51.38
26859;BME280;14429;48.346;16.338;2022-09-16T11:58:00;98924.88;;;23.31;52.17
26859;BME280;14429;48.346;16.338;2022-09-16T12:00:30;98922.16;;;23.25;51.59
26859;BME280;14429;48.346;16.338;2022-09-16T12:03:00;98929.44;;;23.18;51.54
26859;BME280;14429;48.346;16.338;2022-09-16T12:05:32;98924.88;;;23.31;52.24
26859;BME280;14429;48.346;16.338;2022-09-16T12:08:05;98923.19;;;23.17;51.42
26859;BME280;14429;48.346;16.338;2022-09-16T12:10:38;98919.03;;;23.27;51.67
26859;BME280;14429;48.346;16.338;2022-09-16T12:13:09;98916.47;;;23.13;51.93
26859;BME280;14429;48.346;16.338;2022-09-16T12:15:41;98913.97;;;23.18;52.02
26859;BME280;14429;48.346;16.338;2022-09-16T12:18:13;98911.81;;;23.07;51.88
26859;BME280;14429;48.346;16.338;2022-09-16T12:20:44;98899.72;;;23.16;50.85
26859;BME280;14429;48.346;16.338;2022-09-16T12:23:16;98899.72;;;23.23;50.63
26859;BME280;14429;48.346;16.338;2022-09-16T12:25:44;98900.38;;;23.25;50.66
26859;BME280;14429;48.346;16.338;2022-09-16T12:28:15;98898.28;;;23.26;50.79
26859;BME280;14429;48.346;16.338;2022-09-16T12:30:44;98897.06;;;23.35;50.47
26859;BME280;14429;48.346;16.338;2022-09-16T12:33:15;98894.34;;;23.42;50.49
26859;BME280;14429;48.346;16.338;2022-09-16T12:35:50;98892.28;;;23.44;50.73
26859;BME280;14429;48.346;16.338;2022-09-16T12:38:18;98885.56;;;23.40;50.80
26859;BME280;14429;48.346;16.338;2022-09-16T12:40:55;98892.91;;;23.39;50.89
26859;BME280;14429;48.346;16.338;2022-09-16T12:43:40;98885.13;;;23.36;50.68
26859;BME280;14429;48.346;16.338;2022-09-16T12:46:34;98895.19;;;23.42;50.88
26859;BME280;14429;48.346;16.338;2022-09-16T12:52:15;98886.19;;;23.42;51.05
26859;BME280;14429;48.346;16.338;2022-09-16T12:55:00;98871.88;;;23.14;51.62
26859;BME280;14429;48.346;16.338;2022-09-16T12:57:43;98860.81;;;23.22;50.78
26859;BME280;14429;48.346;16.338;2022-09-16T13:00:15;98858.31;;;23.33;51.05
26859;BME280;14429;48.346;16.338;2022-09-16T13:02:45;98873.81;;;23.33;51.36
26859;BME280;14429;48.346;16.338;2022-09-16T13:05:17;98870.00;;;23.21;51.49
26859;BME280;14429;48.346;16.338;2022-09-16T13:07:49;98869.59;;;23.18;51.38
26859;BME280;14429;48.346;16.338;2022-09-16T13:10:19;98851.59;;;23.23;51.75
26859;BME280;14429;48.346;16.338;2022-09-16T13:12:49;98858.91;;;23.16;51.66
26859;BME280;14429;48.346;16.338;2022-09-16T13:15:23;98856.84;;;23.25;51.58